sensor_id;sensor_type;location;lat;lon;timestamp;pressure;altitude;pressure_sealevel;temperature;humidity
31092;BME280;17747;51.070;10.930;2023-01-16T00:00:33;99101.00;;;5.80;61.66
31092;BME280;17747;51.070;10.930;2023-01-16T00:02:05;99101.84;;;5.81;61.70
31092;BME280;17747;51.070;10.930;2023-01-16T00:03:36;99102.47;;;5.89;61.56
31092;BME280;17747;51.070;10.930;2023-01-16T00:05:08;99104.03;;;5.96;61.43
31092;BME280;17747;51.070;10.930;2023-01-16T00:06:39;99101.09;;;5.77;61.71
31092;BME280;17747;51.070;10.930;2023-01-16T00:08:10;99103.53;;;5.54;62.13
31092;BME280;17747;51.070;10.930;2023-01-16T00:09:42;99103.16;;;5.36;62.58
31092;BME280;17747;51.070;10.930;2023-01-16T00:11:13;99116.03;;;5.44;63.01
31092;BME280;17747;51.070;10.930;2023-01-16T00:12:48;99108.69;;;5.86;62.27
31092;BME280;17747;51.070;10.930;2023-01-16T00:14:19;99105.28;;;5.83;62.05
31092;BME280;17747;51.070;10.930;2023-01-16T00:15:50;99113.25;;;5.50;62.39
31092;BME280;17747;51.070;10.930;2023-01-16T00:17:22;99110.44;;;5.56;62.53
31092;BME280;17747;51.070;10.930;2023-01-16T00:18:54;99106.91;;;5.57;62.87
31092;BME280;17747;51.070;10.930;2023-01-16T00:20:24;99108.91;;;5.79;62.29
31092;BME280;17747;51.070;10.930;2023-01-16T00:21:56;99105.09;;;5.59;62.63
31092;BME280;17747;51.070;10.930;2023-01-16T00:23:27;99111.03;;;5.66;62.79
31092;BME280;17747;51.070;10.930;2023-01-16T00:24:59;99103.72;;;5.77;62.42
31092;BME280;17747;51.070;10.930;2023-01-16T00:26:29;99105.66;;;5.41;62.72
31092;BME280;17747;51.070;10.930;2023-01-16T00:28:03;99097.25;;;5.59;62.71
31092;BME280;17747;51.070;10.930;2023-01-16T00:29:33;99099.59;;;5.68;62.19
31092;BME280;17747;51.070;10.930;2023-01-16T00:31:05;99107.56;;;5.93;61.86
31092;BME280;17747;51.070;10.930;2023-01-16T00:32:36;99109.81;;;6.05;61.70
31092;BME280;17747;51.070;10.930;2023-01-16T00:34:08;99094.59;;;6.17;61.34
31092;BME280;17747;51.070;10.930;2023-01-16T00:35:39;99098.06;;;6.19;61.21
31092;BME280;17747;51.070;10.930;2023-01-16T00:37:11;99105.72;;;5.97;61.26
31092;BME280;17747;51.070;10.930;2023-01-16T00:38:41;99099.59;;;5.98;61.50
31092;BME280;17747;51.070;10.930;2023-01-16T00:40:12;99105.13;;;6.15;61.20
31092;BME280;17747;51.070;10.930;2023-01-16T00:41:44;99095.44;;;6.19;61.03
31092;BME280;17747;51.070;10.930;2023-01-16T00:43:17;99099.69;;;5.93;61.33
31092;BME280;17747;51.070;10.930;2023-01-16T00:44:48;99099.97;;;5.86;61.36
31092;BME280;17747;51.070;10.930;2023-01-16T00:46:19;99107.50;;;5.96;61.19
31092;BME280;17747;51.070;10.930;2023-01-16T00:47:50;99104.13;;;5.63;61.86
31092;BME280;17747;51.070;10.930;2023-01-16T00:49:21;99097.53;;;5.50;61.88
31092;BME280;17747;51.070;10.930;2023-01-16T00:50:53;99102.47;;;5.30;62.23
31092;BME280;17747;51.070;10.930;2023-01-16T00:52:24;99111.66;;;5.44;62.01
31092;BME280;17747;51.070;10.930;2023-01-16T00:53:54;99103.22;;;5.35;62.24
31092;BME280;17747;51.070;10.930;2023-01-16T00:55:26;99104.00;;;5.37;62.00
31092;BME280;17747;51.070;10.930;2023-01-16T00:56:56;99102.31;;;5.36;61.78
31092;BME280;17747;51.070;10.930;2023-01-16T00:58:29;99098.97;;;5.60;61.40
31092;BME280;17747;51.070;10.930;2023-01-16T01:00:02;99094.09;;;5.48;61.10
31092;BME280;17747;51.070;10.930;2023-01-16T01:01:34;99098.25;;;5.55;60.55
31092;BME280;17747;51.070;10.930;2023-01-16T01:03:07;99097.66;;;5.75;60.37
31092;BME280;17747;51.070;10.930;2023-01-16T01:04:38;99096.66;;;5.79;60.18
31092;BME280;17747;51.070;10.930;2023-01-16T01:06:09;99089.31;;;5.62;60.30
31092;BME280;17747;51.070;10.930;2023-01-16T01:07:41;99087.09;;;5.78;59.95
31092;BME280;17747;51.070;10.930;2023-01-16T01:09:11;99091.47;;;5.78;59.76
31092;BME280;17747;51.070;10.930;2023-01-16T01:10:43;99082.75;;;5.77;59.71
31092;BME280;17747;51.070;10.930;2023-01-16T01:12:14;99090.34;;;5.26;60.13
31092;BME280;17747;51.070;10.930;2023-01-16T01:13:46;99084.47;;;5.49;60.21
31092;BME280;17747;51.070;10.930;2023-01-16T01:15:17;99083.59;;;5.50;60.03
31092;BME280;17747;51.070;10.930;2023-01-16T01:16:49;99086.31;;;5.74;59.53
31092;BME280;17747;51.070;10.930;2023-01-16T01:18:20;99090.91;;;5.96;59.02
31092;BME280;17747;51.070;10.930;2023-01-16T01:19:51;99088.41;;;5.91;58.97
31092;BME280;17747;51.070;10.930;2023-01-16T01:21:22;99091.19;;;5.87;58.96
31092;BME280;17747;51.070;10.930;2023-01-16T01:22:53;99094.63;;;5.89;58.87
31092;BME280;17747;51.070;10.930;2023-01-16T01:24:25;99097.53;;;6.08;58.45
31092;BME280;17747;51.070;10.930;2023-01-16T01:25:55;99091.75;;;5.68;58.68
31092;BME280;17747;51.070;10.930;2023-01-16T01:27:26;99083.69;;;5.15;59.56
31092;BME280;17747;51.070;10.930;2023-01-16T01:28:59;99081.25;;;5.68;59.00
31092;BME280;17747;51.070;10.930;2023-01-16T01:30:31;99088.94;;;5.74;58.66
31092;BME280;17747;51.070;10.930;2023-01-16T01:32:02;99086.59;;;5.65;58.75
31092;BME280;17747;51.070;10.930;2023-01-16T01:33:35;99083.56;;;5.79;58.54
31092;BME280;17747;51.070;10.930;2023-01-16T01:35:07;99081.06;;;6.02;58.11
31092;BME280;17747;51.070;10.930;2023-01-16T01:36:39;99079.66;;;5.64;58.17
31092;BME280;17747;51.070;10.930;2023-01-16T01:38:10;99079.69;;;5.91;58.20
31092;BME280;17747;51.070;10.930;2023-01-16T01:39:42;99081.41;;;5.92;57.84
31092;BME280;17747;51.070;10.930;2023-01-16T01:41:14;99084.31;;;5.83;57.87
31092;BME280;17747;51.070;10.930;2023-01-16T01:42:44;99082.66;;;6.08;57.43
31092;BME280;17747;51.070;10.930;2023-01-16T01:46:29;99079.72;;;5.32;58.41
31092;BME280;17747;51.070;10.930;2023-01-16T01:48:02;99082.22;;;5.94;57.62
31092;BME280;17747;51.070;10.930;2023-01-16T01:49:34;99071.31;;;5.80;57.59
31092;BME280;17747;51.070;10.930;2023-01-16T01:51:06;99078.34;;;6.05;56.96
31092;BME280;17747;51.070;10.930;2023-01-16T01:52:38;99074.88;;;5.77;57.61
31092;BME280;17747;51.070;10.930;2023-01-16T01:54:11;99066.13;;;5.50;57.75
31092;BME280;17747;51.070;10.930;2023-01-16T01:55:44;99071.84;;;5.63;57.72
31092;BME280;17747;51.070;10.930;2023-01-16T01:57:17;99078.59;;;5.70;57.82
31092;BME280;17747;51.070;10.930;2023-01-16T01:58:50;99077.47;;;5.79;57.43
31092;BME280;17747;51.070;10.930;2023-01-16T02:00:24;99070.97;;;5.90;57.62
31092;BME280;17747;51.070;10.930;2023-01-16T02:01:58;99071.13;;;5.86;57.67
31092;BME280;17747;51.070;10.930;2023-01-16T02:03:31;99076.97;;;5.94;57.35
31092;BME280;17747;51.070;10.930;2023-01-16T02:05:04;99085.75;;;5.93;57.59
31092;BME280;17747;51.070;10.930;2023-01-16T02:06:38;99083.66;;;6.04;56.77
31092;BME280;17747;51.070;10.930;2023-01-16T02:08:12;99073.38;;;5.40;57.54
31092;BME280;17747;51.070;10.930;2023-01-16T02:09:44;99081.13;;;5.12;58.66
31092;BME280;17747;51.070;10.930;2023-01-16T02:11:16;99072.69;;;5.63;57.91
31092;BME280;17747;51.070;10.930;2023-01-16T02:12:57;99072.22;;;5.51;57.89
31092;BME280;17747;51.070;10.930;2023-01-16T02:14:28;99076.75;;;5.44;57.82
31092;BME280;17747;51.070;10.930;2023-01-16T02:16:00;99073.41;;;5.68;58.19
31092;BME280;17747;51.070;10.930;2023-01-16T02:17:50;99074.13;;;5.73;57.37
31092;BME280;17747;51.070;10.930;2023-01-16T02:19:42;99072.28;;;5.77;57.39
31092;BME280;17747;51.070;10.930;2023-01-16T02:21:18;99072.94;;;5.84;57.73
31092;BME280;17747;51.070;10.930;2023-01-16T02:24:54;99069.81;;;5.43;57.95
31092;BME280;17747;51.070;10.930;2023-01-16T02:28:34;99067.72;;;5.54;57.88
31092;BME280;17747;51.070;10.930;2023-01-16T02:32:01;99056.56;;;6.03;57.08
31092;BME280;17747;51.070;10.930;2023-01-16T02:33:39;99062.88;;;5.98;57.28
31092;BME280;17747;51.070;10.930;2023-01-16T02:35:21;99055.31;;;6.15;56.79
31092;BME280;17747;51.070;10.930;2023-01-16T02:36:58;99057.88;;;6.18;56.70
31092;BME280;17747;51.070;10.930;2023-01-16T02:38:35;99053.31;;;5.97;56.76
31092;BME280;17747;51.070;10.930;2023-01-16T02:40:16;99056.34;;;5.83;57.22
31092;BME280;17747;51.070;10.930;2023-01-16T02:41:55;99053.72;;;6.11;56.44
31092;BME280;17747;51.070;10.930;2023-01-16T02:43:32;99057.44;;;6.04;56.40
31092;BME280;17747;51.070;10.930;2023-01-16T02:45:07;99054.41;;;5.90;56.78
31092;BME280;17747;51.070;10.930;2023-01-16T02:46:42;99048.81;;;6.00;56.35
31092;BME280;17747;51.070;10.930;2023-01-16T02:48:21;99050.53;;;5.45;57.37
31092;BME280;17747;51.070;10.930;2023-01-16T02:49:59;99048.34;;;5.60;57.26
31092;BME280;17747;51.070;10.930;2023-01-16T02:51:33;99053.78;;;5.54;57.14
31092;BME280;17747;51.070;10.930;2023-01-16T02:53:08;99051.69;;;5.35;57.62
31092;BME280;17747;51.070;10.930;2023-01-16T02:54:45;99045.66;;;5.63;57.26
31092;BME280;17747;51.070;10.930;2023-01-16T02:56:20;99045.88;;;5.55;57.32
31092;BME280;17747;51.070;10.930;2023-01-16T02:57:54;99042.16;;;5.02;57.81
31092;BME280;17747;51.070;10.930;2023-01-16T02:59:27;99039.88;;;5.21;57.90
31092;BME280;17747;51.070;10.930;2023-01-16T03:00:59;99038.63;;;5.04;57.97
31092;BME280;17747;51.070;10.930;2023-01-16T03:02:31;99036.00;;;5.04;58.06
31092;BME280;17747;51.070;10.930;2023-01-16T03:04:05;99033.72;;;4.92;58.41
31092;BME280;17747;51.070;10.930;2023-01-16T03:05:38;99029.38;;;5.22;57.93
31092;BME280;17747;51.070;10.930;2023-01-16T03:10:57;99026.25;;;5.09;57.89
31092;BME280;17747;51.070;10.930;2023-01-16T03:12:38;99028.72;;;5.14;57.90
31092;BME280;17747;51.070;10.930;2023-01-16T03:14:11;99024.66;;;5.04;57.88
31092;BME280;17747;51.070;10.930;2023-01-16T03:15:49;99023.69;;;4.77;58.52
31092;BME280;17747;51.070;10.930;2023-01-16T03:17:30;99028.66;;;5.17;58.13
31092;BME280;17747;51.070;10.930;2023-01-16T03:19:13;99020.69;;;5.20;57.71
31092;BME280;17747;51.070;10.930;2023-01-16T03:20:48;99025.78;;;4.64;58.40
31092;BME280;17747;51.070;10.930;2023-01-16T03:22:23;99021.88;;;5.10;57.93
31092;BME280;17747;51.070;10.930;2023-01-16T03:23:57;99013.38;;;5.31;57.26
31092;BME280;17747;51.070;10.930;2023-01-16T03:25:32;99020.28;;;5.35;57.49
31092;BME280;17747;51.070;10.930;2023-01-16T03:27:06;99005.47;;;5.05;57.50
31092;BME280;17747;51.070;10.930;2023-01-16T03:28:41;99006.56;;;5.26;56.78
31092;BME280;17747;51.070;10.930;2023-01-16T03:30:19;99000.28;;;5.02;57.43
31092;BME280;17747;51.070;10.930;2023-01-16T03:31:55;98996.84;;;4.70;57.78
31092;BME280;17747;51.070;10.930;2023-01-16T03:33:30;98998.66;;;4.67;58.32
31092;BME280;17747;51.070;10.930;2023-01-16T03:35:05;98999.31;;;4.75;58.19
31092;BME280;17747;51.070;10.930;2023-01-16T03:36:40;99000.28;;;4.72;58.40
31092;BME280;17747;51.070;10.930;2023-01-16T03:38:15;98992.81;;;4.57;58.30
31092;BME280;17747;51.070;10.930;2023-01-16T03:39:50;98992.13;;;4.18;59.12
31092;BME280;17747;51.070;10.930;2023-01-16T03:41:24;98996.09;;;4.33;59.04
31092;BME280;17747;51.070;10.930;2023-01-16T03:42:58;98990.78;;;4.68;58.56
31092;BME280;17747;51.070;10.930;2023-01-16T03:44:32;98992.88;;;4.55;58.34
31092;BME280;17747;51.070;10.930;2023-01-16T03:46:06;98991.53;;;4.73;58.03
31092;BME280;17747;51.070;10.930;2023-01-16T03:47:38;98990.50;;;4.46;58.24
31092;BME280;17747;51.070;10.930;2023-01-16T03:49:11;98986.00;;;4.19;59.54
31092;BME280;17747;51.070;10.930;2023-01-16T03:50:47;98979.75;;;4.24;59.03
31092;BME280;17747;51.070;10.930;2023-01-16T03:52:22;98988.97;;;4.05;59.70
31092;BME280;17747;51.070;10.930;2023-01-16T03:53:57;98983.84;;;4.00;59.98
31092;BME280;17747;51.070;10.930;2023-01-16T03:55:31;98987.50;;;3.95;59.73
31092;BME280;17747;51.070;10.930;2023-01-16T03:57:06;98989.94;;;4.03;59.83
31092;BME280;17747;51.070;10.930;2023-01-16T03:58:39;98984.75;;;3.99;59.90
31092;BME280;17747;51.070;10.930;2023-01-16T04:00:12;98988.56;;;3.86;60.14
31092;BME280;17747;51.070;10.930;2023-01-16T04:01:45;98986.97;;;3.81;60.68
31092;BME280;17747;51.070;10.930;2023-01-16T04:03:20;98999.44;;;3.68;60.81
31092;BME280;17747;51.070;10.930;2023-01-16T04:04:52;98995.50;;;3.52;60.95
31092;BME280;17747;51.070;10.930;2023-01-16T04:06:29;98992.16;;;3.45;61.24
31092;BME280;17747;51.070;10.930;2023-01-16T04:08:03;98979.00;;;3.50;61.37
31092;BME280;17747;51.070;10.930;2023-01-16T04:09:38;98989.09;;;3.65;61.18
31092;BME280;17747;51.070;10.930;2023-01-16T04:11:12;98983.03;;;3.63;61.02
31092;BME280;17747;51.070;10.930;2023-01-16T04:12:43;98984.03;;;3.59;60.81
31092;BME280;17747;51.070;10.930;2023-01-16T04:14:16;98982.41;;;3.53;61.54
31092;BME280;17747;51.070;10.930;2023-01-16T04:15:49;98987.72;;;3.86;61.24
31092;BME280;17747;51.070;10.930;2023-01-16T04:17:22;98979.91;;;3.84;61.12
31092;BME280;17747;51.070;10.930;2023-01-16T04:18:53;98976.69;;;4.09;60.30
31092;BME280;17747;51.070;10.930;2023-01-16T04:20:27;98976.88;;;4.01;60.60
31092;BME280;17747;51.070;10.930;2023-01-16T04:22:03;98981.50;;;3.91;60.70
31092;BME280;17747;51.070;10.930;2023-01-16T04:23:35;98981.72;;;3.82;61.10
31092;BME280;17747;51.070;10.930;2023-01-16T04:25:07;98980.91;;;3.80;61.04
31092;BME280;17747;51.070;10.930;2023-01-16T04:26:39;98979.84;;;3.87;61.34
31092;BME280;17747;51.070;10.930;2023-01-16T04:28:10;98974.06;;;4.09;60.82
31092;BME280;17747;51.070;10.930;2023-01-16T04:29:42;98974.31;;;3.99;60.93
31092;BME280;17747;51.070;10.930;2023-01-16T04:31:13;98970.97;;;3.94;60.80
31092;BME280;17747;51.070;10.930;2023-01-16T04:32:44;98966.25;;;3.73;61.04
31092;BME280;17747;51.070;10.930;2023-01-16T04:34:16;98956.13;;;3.95;61.52
31092;BME280;17747;51.070;10.930;2023-01-16T04:35:47;98961.50;;;3.89;61.10
31092;BME280;17747;51.070;10.930;2023-01-16T04:37:20;98958.03;;;3.88;60.97
31092;BME280;17747;51.070;10.930;2023-01-16T04:38:51;98954.41;;;3.60;61.35
31092;BME280;17747;51.070;10.930;2023-01-16T04:40:23;98948.66;;;3.44;62.21
31092;BME280;17747;51.070;10.930;2023-01-16T04:41:54;98948.41;;;3.55;61.84
31092;BME280;17747;51.070;10.930;2023-01-16T04:43:26;98945.66;;;3.61;62.13
31092;BME280;17747;51.070;10.930;2023-01-16T04:44:57;98951.31;;;3.78;61.71
31092;BME280;17747;51.070;10.930;2023-01-16T04:46:29;98952.75;;;3.56;61.88
31092;BME280;17747;51.070;10.930;2023-01-16T04:47:59;98950.28;;;3.85;61.69
31092;BME280;17747;51.070;10.930;2023-01-16T04:49:30;98948.13;;;4.03;61.02
31092;BME280;17747;51.070;10.930;2023-01-16T04:51:02;98942.81;;;4.06;61.04
31092;BME280;17747;51.070;10.930;2023-01-16T04:52:35;98938.72;;;4.28;60.23
31092;BME280;17747;51.070;10.930;2023-01-16T04:54:06;98938.38;;;4.40;60.16
31092;BME280;17747;51.070;10.930;2023-01-16T04:55:38;98938.19;;;4.48;59.58
31092;BME280;17747;51.070;10.930;2023-01-16T04:57:09;98926.47;;;4.30;59.42
31092;BME280;17747;51.070;10.930;2023-01-16T04:58:41;98923.38;;;4.47;59.74
31092;BME280;17747;51.070;10.930;2023-01-16T05:00:11;98929.66;;;4.41;59.58
31092;BME280;17747;51.070;10.930;2023-01-16T05:01:43;98921.84;;;4.40;59.41
31092;BME280;17747;51.070;10.930;2023-01-16T05:03:15;98917.81;;;4.28;59.38
31092;BME280;17747;51.070;10.930;2023-01-16T05:04:46;98918.09;;;3.85;60.59
31092;BME280;17747;51.070;10.930;2023-01-16T05:06:18;98919.25;;;4.07;60.55
31092;BME280;17747;51.070;10.930;2023-01-16T05:07:50;98920.47;;;4.26;60.24
31092;BME280;17747;51.070;10.930;2023-01-16T05:09:36;98922.28;;;3.92;60.81
31092;BME280;17747;51.070;10.930;2023-01-16T05:11:07;98923.94;;;3.94;60.86
31092;BME280;17747;51.070;10.930;2023-01-16T05:12:39;98919.03;;;3.82;61.34
31092;BME280;17747;51.070;10.930;2023-01-16T05:14:10;98921.47;;;3.88;61.42
31092;BME280;17747;51.070;10.930;2023-01-16T05:15:42;98922.84;;;4.03;60.83
31092;BME280;17747;51.070;10.930;2023-01-16T05:17:13;98920.09;;;4.08;60.90
31092;BME280;17747;51.070;10.930;2023-01-16T05:18:45;98923.63;;;4.07;61.06
31092;BME280;17747;51.070;10.930;2023-01-16T05:20:16;98911.78;;;3.93;61.38
31092;BME280;17747;51.070;10.930;2023-01-16T05:21:47;98911.22;;;4.13;60.82
31092;BME280;17747;51.070;10.930;2023-01-16T05:23:20;98913.41;;;3.97;60.79
31092;BME280;17747;51.070;10.930;2023-01-16T05:24:52;98913.53;;;3.93;61.56
31092;BME280;17747;51.070;10.930;2023-01-16T05:26:23;98914.09;;;4.04;61.27
31092;BME280;17747;51.070;10.930;2023-01-16T05:27:54;98911.97;;;3.86;61.43
31092;BME280;17747;51.070;10.930;2023-01-16T05:29:26;98906.09;;;4.10;61.18
31092;BME280;17747;51.070;10.930;2023-01-16T05:30:57;98898.81;;;3.89;61.52
31092;BME280;17747;51.070;10.930;2023-01-16T05:32:29;98896.16;;;4.23;60.79
31092;BME280;17747;51.070;10.930;2023-01-16T05:34:00;98899.03;;;4.14;60.55
31092;BME280;17747;51.070;10.930;2023-01-16T05:35:32;98900.88;;;4.10;60.39
31092;BME280;17747;51.070;10.930;2023-01-16T05:37:03;98896.81;;;4.31;60.15
31092;BME280;17747;51.070;10.930;2023-01-16T05:38:36;98892.94;;;4.44;59.95
31092;BME280;17747;51.070;10.930;2023-01-16T05:40:08;98900.22;;;4.33;59.91
31092;BME280;17747;51.070;10.930;2023-01-16T05:41:40;98890.31;;;4.15;60.34
31092;BME280;17747;51.070;10.930;2023-01-16T05:43:11;98892.78;;;4.19;60.44
31092;BME280;17747;51.070;10.930;2023-01-16T05:44:43;98887.84;;;4.09;60.74
31092;BME280;17747;51.070;10.930;2023-01-16T05:46:14;98889.97;;;4.27;60.62
31092;BME280;17747;51.070;10.930;2023-01-16T05:47:46;98890.78;;;4.29;60.20
31092;BME280;17747;51.070;10.930;2023-01-16T05:49:17;98892.53;;;3.96;60.77
31092;BME280;17747;51.070;10.930;2023-01-16T05:50:48;98881.56;;;3.83;61.21
31092;BME280;17747;51.070;10.930;2023-01-16T05:52:20;98879.97;;;4.10;60.69
31092;BME280;17747;51.070;10.930;2023-01-16T05:53:53;98877.72;;;4.29;60.61
31092;BME280;17747;51.070;10.930;2023-01-16T05:55:24;98878.28;;;4.08;60.66
31092;BME280;17747;51.070;10.930;2023-01-16T05:56:55;98883.81;;;3.97;61.59
31092;BME280;17747;51.070;10.930;2023-01-16T05:58:27;98886.75;;;3.85;61.66
31092;BME280;17747;51.070;10.930;2023-01-16T05:59:58;98878.19;;;4.11;61.17
31092;BME280;17747;51.070;10.930;2023-01-16T06:01:30;98879.66;;;3.88;61.60
31092;BME280;17747;51.070;10.930;2023-01-16T06:03:01;98883.66;;;4.03;61.55
31092;BME280;17747;51.070;10.930;2023-01-16T06:04:32;98880.13;;;3.71;62.34
31092;BME280;17747;51.070;10.930;2023-01-16T06:06:04;98878.44;;;4.01;61.74
31092;BME280;17747;51.070;10.930;2023-01-16T06:07:35;98873.81;;;3.80;62.01
31092;BME280;17747;51.070;10.930;2023-01-16T06:09:09;98874.09;;;3.69;62.48
31092;BME280;17747;51.070;10.930;2023-01-16T06:10:40;98867.34;;;3.61;62.64
31092;BME280;17747;51.070;10.930;2023-01-16T06:12:12;98864.53;;;3.68;62.81
31092;BME280;17747;51.070;10.930;2023-01-16T06:13:45;98861.78;;;3.73;62.68
31092;BME280;17747;51.070;10.930;2023-01-16T06:15:16;98860.00;;;3.75;62.79
31092;BME280;17747;51.070;10.930;2023-01-16T06:16:47;98865.66;;;3.92;62.36
31092;BME280;17747;51.070;10.930;2023-01-16T06:18:19;98868.13;;;3.97;62.48
31092;BME280;17747;51.070;10.930;2023-01-16T06:19:50;98862.66;;;3.74;62.66
31092;BME280;17747;51.070;10.930;2023-01-16T06:21:21;98866.56;;;3.91;62.49
31092;BME280;17747;51.070;10.930;2023-01-16T06:22:53;98863.84;;;3.94;62.41
31092;BME280;17747;51.070;10.930;2023-01-16T06:24:26;98868.00;;;3.69;62.91
31092;BME280;17747;51.070;10.930;2023-01-16T06:25:57;98868.59;;;3.79;62.70
31092;BME280;17747;51.070;10.930;2023-01-16T06:27:29;98873.00;;;3.77;62.85
31092;BME280;17747;51.070;10.930;2023-01-16T06:29:02;98861.94;;;3.33;63.24
31092;BME280;17747;51.070;10.930;2023-01-16T06:30:33;98858.47;;;3.66;63.58
31092;BME280;17747;51.070;10.930;2023-01-16T06:32:05;98859.84;;;3.81;62.80
31092;BME280;17747;51.070;10.930;2023-01-16T06:33:36;98857.06;;;3.87;62.78
31092;BME280;17747;51.070;10.930;2023-01-16T06:35:08;98855.72;;;4.05;62.08
31092;BME280;17747;51.070;10.930;2023-01-16T06:36:39;98855.69;;;4.07;61.71
31092;BME280;17747;51.070;10.930;2023-01-16T06:38:11;98849.06;;;3.93;62.12
31092;BME280;17747;51.070;10.930;2023-01-16T06:39:44;98859.91;;;3.78;62.52
31092;BME280;17747;51.070;10.930;2023-01-16T06:41:15;98858.19;;;3.77;62.63
31092;BME280;17747;51.070;10.930;2023-01-16T06:42:47;98852.31;;;4.01;62.21
31092;BME280;17747;51.070;10.930;2023-01-16T06:44:18;98858.94;;;3.82;62.57
31092;BME280;17747;51.070;10.930;2023-01-16T06:45:49;98857.09;;;3.86;62.47
31092;BME280;17747;51.070;10.930;2023-01-16T06:47:21;98859.72;;;3.86;62.47
31092;BME280;17747;51.070;10.930;2023-01-16T06:48:52;98844.78;;;3.58;62.72
31092;BME280;17747;51.070;10.930;2023-01-16T06:50:24;98850.38;;;3.77;63.25
31092;BME280;17747;51.070;10.930;2023-01-16T06:51:55;98850.31;;;3.79;63.01
31092;BME280;17747;51.070;10.930;2023-01-16T06:53:27;98853.78;;;3.79;63.21
31092;BME280;17747;51.070;10.930;2023-01-16T06:54:59;98847.25;;;3.63;63.33
31092;BME280;17747;51.070;10.930;2023-01-16T06:56:31;98842.84;;;3.65;63.59
31092;BME280;17747;51.070;10.930;2023-01-16T06:58:02;98839.25;;;3.70;63.18
31092;BME280;17747;51.070;10.930;2023-01-16T06:59:34;98845.78;;;3.53;63.52
31092;BME280;17747;51.070;10.930;2023-01-16T07:01:05;98839.25;;;3.70;63.41
31092;BME280;17747;51.070;10.930;2023-01-16T07:02:37;98833.72;;;3.81;63.47
31092;BME280;17747;51.070;10.930;2023-01-16T07:04:09;98829.22;;;3.86;63.19
31092;BME280;17747;51.070;10.930;2023-01-16T07:05:41;98826.25;;;3.67;63.55
31092;BME280;17747;51.070;10.930;2023-01-16T07:07:12;98834.94;;;3.68;63.25
31092;BME280;17747;51.070;10.930;2023-01-16T07:08:44;98829.66;;;3.71;63.50
31092;BME280;17747;51.070;10.930;2023-01-16T07:10:17;98824.00;;;3.54;63.72
31092;BME280;17747;51.070;10.930;2023-01-16T07:11:50;98822.84;;;3.64;64.02
31092;BME280;17747;51.070;10.930;2023-01-16T07:13:21;98830.47;;;3.73;63.70
31092;BME280;17747;51.070;10.930;2023-01-16T07:14:58;98823.63;;;3.69;63.91
31092;BME280;17747;51.070;10.930;2023-01-16T07:16:46;98826.19;;;3.70;63.92
31092;BME280;17747;51.070;10.930;2023-01-16T07:18:35;98825.13;;;3.43;64.12
31092;BME280;17747;51.070;10.930;2023-01-16T07:20:24;98820.44;;;3.58;64.12
31092;BME280;17747;51.070;10.930;2023-01-16T07:22:13;98823.00;;;3.92;63.16
31092;BME280;17747;51.070;10.930;2023-01-16T07:24:04;98822.41;;;3.48;63.86
31092;BME280;17747;51.070;10.930;2023-01-16T07:25:38;98811.84;;;3.53;63.80
31092;BME280;17747;51.070;10.930;2023-01-16T07:27:09;98817.47;;;3.37;64.28
31092;BME280;17747;51.070;10.930;2023-01-16T07:28:41;98811.22;;;3.43;63.80
31092;BME280;17747;51.070;10.930;2023-01-16T07:30:12;98814.09;;;3.32;64.34
31092;BME280;17747;51.070;10.930;2023-01-16T07:31:44;98810.84;;;3.24;64.50
31092;BME280;17747;51.070;10.930;2023-01-16T07:33:16;98821.38;;;3.54;64.06
31092;BME280;17747;51.070;10.930;2023-01-16T07:34:47;98809.13;;;3.57;63.67
31092;BME280;17747;51.070;10.930;2023-01-16T07:36:19;98812.50;;;3.61;63.34
31092;BME280;17747;51.070;10.930;2023-01-16T07:37:50;98817.06;;;3.53;63.23
31092;BME280;17747;51.070;10.930;2023-01-16T07:39:26;98815.59;;;3.42;63.57
31092;BME280;17747;51.070;10.930;2023-01-16T07:40:59;98814.69;;;3.43;63.61
31092;BME280;17747;51.070;10.930;2023-01-16T07:42:30;98810.31;;;3.46;63.87
31092;BME280;17747;51.070;10.930;2023-01-16T07:44:02;98810.94;;;3.54;63.47
31092;BME280;17747;51.070;10.930;2023-01-16T07:45:33;98814.03;;;3.35;63.64
31092;BME280;17747;51.070;10.930;2023-01-16T07:47:05;98807.81;;;3.74;63.53
31092;BME280;17747;51.070;10.930;2023-01-16T07:48:36;98809.94;;;3.59;63.45
31092;BME280;17747;51.070;10.930;2023-01-16T07:50:08;98812.56;;;3.59;63.68
31092;BME280;17747;51.070;10.930;2023-01-16T07:51:39;98806.63;;;3.85;63.01
31092;BME280;17747;51.070;10.930;2023-01-16T07:53:11;98806.56;;;3.87;63.13
31092;BME280;17747;51.070;10.930;2023-01-16T07:54:42;98805.63;;;3.89;62.72
31092;BME280;17747;51.070;10.930;2023-01-16T07:56:15;98802.72;;;3.69;63.00
31092;BME280;17747;51.070;10.930;2023-01-16T07:57:47;98802.50;;;3.77;62.80
31092;BME280;17747;51.070;10.930;2023-01-16T07:59:18;98799.25;;;3.68;62.73
31092;BME280;17747;51.070;10.930;2023-01-16T08:00:51;98799.69;;;3.52;63.34
31092;BME280;17747;51.070;10.930;2023-01-16T08:02:22;98796.72;;;3.31;63.40
31092;BME280;17747;51.070;10.930;2023-01-16T08:03:54;98795.50;;;3.46;63.70
31092;BME280;17747;51.070;10.930;2023-01-16T08:05:25;98794.75;;;3.41;63.67
31092;BME280;17747;51.070;10.930;2023-01-16T08:06:57;98801.75;;;3.39;63.53
31092;BME280;17747;51.070;10.930;2023-01-16T08:08:29;98798.78;;;3.53;63.71
31092;BME280;17747;51.070;10.930;2023-01-16T08:10:01;98794.38;;;3.55;63.46
31092;BME280;17747;51.070;10.930;2023-01-16T08:11:33;98796.22;;;3.51;63.71
31092;BME280;17747;51.070;10.930;2023-01-16T08:13:08;98786.59;;;3.53;63.83
31092;BME280;17747;51.070;10.930;2023-01-16T08:14:40;98794.06;;;3.67;63.66
31092;BME280;17747;51.070;10.930;2023-01-16T08:16:11;98793.16;;;3.68;63.46
31092;BME280;17747;51.070;10.930;2023-01-16T08:17:42;98796.88;;;3.90;63.44
31092;BME280;17747;51.070;10.930;2023-01-16T08:19:14;98788.09;;;3.94;63.27
31092;BME280;17747;51.070;10.930;2023-01-16T08:20:45;98789.28;;;3.83;63.24
31092;BME280;17747;51.070;10.930;2023-01-16T08:22:17;98784.22;;;3.77;63.38
31092;BME280;17747;51.070;10.930;2023-01-16T08:23:48;98781.84;;;3.69;63.50